sensor_id;sensor_type;location;lat;lon;timestamp;temperature;humidity
62581;DHT22;48640;48.770;9.148;2023-08-20T00:02:10;23.90;99.90
62581;DHT22;48640;48.770;9.148;2023-08-20T00:04:40;23.90;99.90
62581;DHT22;48640;48.770;9.148;2023-08-20T00:07:08;23.90;99.90
62581;DHT22;48640;48.770;9.148;2023-08-20T00:09:35;23.90;99.90
62581;DHT22;48640;48.770;9.148;2023-08-20T00:12:03;24.00;99.90
62581;DHT22;48640;48.770;9.148;2023-08-20T00:15:01;24.00;99.90
62581;DHT22;48640;48.770;9.148;2023-08-20T00:17:34;24.00;99.90
62581;DHT22;48640;48.770;9.148;2023-08-20T00:20:03;24.00;99.90
62581;DHT22;48640;48.770;9.148;2023-08-20T00:22:35;24.00;99.90
62581;DHT22;48640;48.770;9.148;2023-08-20T00:25:04;24.00;99.90
62581;DHT22;48640;48.770;9.148;2023-08-20T00:27:32;24.00;99.90
62581;DHT22;48640;48.770;9.148;2023-08-20T00:29:59;24.00;99.90
62581;DHT22;48640;48.770;9.148;2023-08-20T00:32:26;24.00;99.90
62581;DHT22;48640;48.770;9.148;2023-08-20T00:34:53;24.00;99.90
62581;DHT22;48640;48.770;9.148;2023-08-20T00:37:21;23.90;99.90
62581;DHT22;48640;48.770;9.148;2023-08-20T00:39:48;23.90;99.90
62581;DHT22;48640;48.770;9.148;2023-08-20T00:42:16;24.00;99.90
62581;DHT22;48640;48.770;9.148;2023-08-20T00:44:43;24.00;99.90
62581;DHT22;48640;48.770;9.148;2023-08-20T00:47:11;24.10;99.90
62581;DHT22;48640;48.770;9.148;2023-08-20T00:49:39;24.00;99.90
62581;DHT22;48640;48.770;9.148;2023-08-20T00:52:08;23.90;99.90
62581;DHT22;48640;48.770;9.148;2023-08-20T00:54:39;23.80;99.90
62581;DHT22;48640;48.770;9.148;2023-08-20T00:57:09;23.80;99.90
62581;DHT22;48640;48.770;9.148;2023-08-20T00:59:36;23.80;99.90
62581;DHT22;48640;48.770;9.148;2023-08-20T01:02:07;23.80;99.90
62581;DHT22;48640;48.770;9.148;2023-08-20T01:04:34;23.70;99.90
62581;DHT22;48640;48.770;9.148;2023-08-20T01:07:07;23.70;99.90
62581;DHT22;48640;48.770;9.148;2023-08-20T01:09:46;23.70;99.90
62581;DHT22;48640;48.770;9.148;2023-08-20T01:12:16;23.60;99.90
62581;DHT22;48640;48.770;9.148;2023-08-20T01:14:44;23.60;99.90
62581;DHT22;48640;48.770;9.148;2023-08-20T01:17:11;23.60;99.90
62581;DHT22;48640;48.770;9.148;2023-08-20T01:19:38;23.60;99.90
62581;DHT22;48640;48.770;9.148;2023-08-20T01:22:21;23.70;99.90
62581;DHT22;48640;48.770;9.148;2023-08-20T01:25:00;23.60;99.90
62581;DHT22;48640;48.770;9.148;2023-08-20T01:27:48;23.60;99.90
62581;DHT22;48640;48.770;9.148;2023-08-20T01:30:20;23.60;99.90
62581;DHT22;48640;48.770;9.148;2023-08-20T01:32:49;23.50;99.90
62581;DHT22;48640;48.770;9.148;2023-08-20T01:35:17;23.50;99.90
62581;DHT22;48640;48.770;9.148;2023-08-20T01:37:46;23.50;99.90
62581;DHT22;48640;48.770;9.148;2023-08-20T01:40:13;23.60;99.90
62581;DHT22;48640;48.770;9.148;2023-08-20T01:42:42;23.50;99.90
62581;DHT22;48640;48.770;9.148;2023-08-20T01:45:09;23.40;99.90
62581;DHT22;48640;48.770;9.148;2023-08-20T01:47:38;23.40;99.90
62581;DHT22;48640;48.770;9.148;2023-08-20T01:50:06;23.40;99.90
62581;DHT22;48640;48.770;9.148;2023-08-20T01:52:33;23.30;99.90
62581;DHT22;48640;48.770;9.148;2023-08-20T01:55:00;23.30;99.90
62581;DHT22;48640;48.770;9.148;2023-08-20T01:57:27;23.30;99.90
62581;DHT22;48640;48.770;9.148;2023-08-20T01:59:54;23.30;99.90
62581;DHT22;48640;48.770;9.148;2023-08-20T02:02:20;23.30;99.90
62581;DHT22;48640;48.770;9.148;2023-08-20T02:04:49;23.30;99.90
62581;DHT22;48640;48.770;9.148;2023-08-20T02:07:16;23.30;99.90
62581;DHT22;48640;48.770;9.148;2023-08-20T02:09:43;23.20;99.90
62581;DHT22;48640;48.770;9.148;2023-08-20T02:12:10;23.20;99.90
62581;DHT22;48640;48.770;9.148;2023-08-20T02:14:36;23.10;99.90
62581;DHT22;48640;48.770;9.148;2023-08-20T02:17:03;23.10;99.90
62581;DHT22;48640;48.770;9.148;2023-08-20T02:19:30;23.10;99.90
62581;DHT22;48640;48.770;9.148;2023-08-20T02:21:59;23.10;99.90
62581;DHT22;48640;48.770;9.148;2023-08-20T02:24:26;23.10;99.90
62581;DHT22;48640;48.770;9.148;2023-08-20T02:26:54;23.10;99.90
62581;DHT22;48640;48.770;9.148;2023-08-20T02:29:20;23.00;99.90
62581;DHT22;48640;48.770;9.148;2023-08-20T02:31:47;23.00;99.90
62581;DHT22;48640;48.770;9.148;2023-08-20T02:34:14;23.00;99.90
62581;DHT22;48640;48.770;9.148;2023-08-20T02:36:41;23.00;99.90
62581;DHT22;48640;48.770;9.148;2023-08-20T02:39:09;22.90;99.90
62581;DHT22;48640;48.770;9.148;2023-08-20T02:41:36;22.90;99.90
62581;DHT22;48640;48.770;9.148;2023-08-20T02:44:04;22.90;99.90
62581;DHT22;48640;48.770;9.148;2023-08-20T02:46:31;22.80;99.90
62581;DHT22;48640;48.770;9.148;2023-08-20T02:48:58;22.90;99.90
62581;DHT22;48640;48.770;9.148;2023-08-20T02:51:25;22.80;99.90
62581;DHT22;48640;48.770;9.148;2023-08-20T02:53:51;22.80;99.90
62581;DHT22;48640;48.770;9.148;2023-08-20T02:56:20;22.90;99.90
62581;DHT22;48640;48.770;9.148;2023-08-20T02:58:47;22.80;99.90
62581;DHT22;48640;48.770;9.148;2023-08-20T03:01:20;22.80;99.90
62581;DHT22;48640;48.770;9.148;2023-08-20T03:03:47;22.80;99.90
62581;DHT22;48640;48.770;9.148;2023-08-20T03:06:14;22.80;99.90
62581;DHT22;48640;48.770;9.148;2023-08-20T03:08:41;22.80;99.90
62581;DHT22;48640;48.770;9.148;2023-08-20T03:11:08;22.80;99.90
62581;DHT22;48640;48.770;9.148;2023-08-20T03:13:36;22.70;99.90
62581;DHT22;48640;48.770;9.148;2023-08-20T03:16:03;22.60;99.90
62581;DHT22;48640;48.770;9.148;2023-08-20T03:18:30;22.60;99.90
62581;DHT22;48640;48.770;9.148;2023-08-20T03:20:57;22.60;99.90
62581;DHT22;48640;48.770;9.148;2023-08-20T03:23:25;22.60;99.90
62581;DHT22;48640;48.770;9.148;2023-08-20T03:25:52;22.60;99.90
62581;DHT22;48640;48.770;9.148;2023-08-20T03:28:21;22.50;99.90
62581;DHT22;48640;48.770;9.148;2023-08-20T03:30:49;22.60;99.90
62581;DHT22;48640;48.770;9.148;2023-08-20T03:33:15;22.60;99.90
62581;DHT22;48640;48.770;9.148;2023-08-20T03:35:43;22.50;99.90
62581;DHT22;48640;48.770;9.148;2023-08-20T03:38:10;22.50;99.90
62581;DHT22;48640;48.770;9.148;2023-08-20T03:40:37;22.60;99.90
62581;DHT22;48640;48.770;9.148;2023-08-20T03:43:04;22.50;99.90
62581;DHT22;48640;48.770;9.148;2023-08-20T03:45:33;22.50;99.90
62581;DHT22;48640;48.770;9.148;2023-08-20T03:48:01;22.50;99.90
62581;DHT22;48640;48.770;9.148;2023-08-20T03:50:28;22.30;99.90
62581;DHT22;48640;48.770;9.148;2023-08-20T03:52:55;22.30;99.90
62581;DHT22;48640;48.770;9.148;2023-08-20T03:55:22;22.30;99.90
62581;DHT22;48640;48.770;9.148;2023-08-20T03:57:49;22.30;99.90
62581;DHT22;48640;48.770;9.148;2023-08-20T04:00:16;22.30;99.90
62581;DHT22;48640;48.770;9.148;2023-08-20T04:02:43;22.30;99.90
62581;DHT22;48640;48.770;9.148;2023-08-20T04:05:12;22.30;99.90
62581;DHT22;48640;48.770;9.148;2023-08-20T04:07:39;22.20;99.90
62581;DHT22;48640;48.770;9.148;2023-08-20T04:10:08;22.30;99.90
62581;DHT22;48640;48.770;9.148;2023-08-20T04:12:35;22.30;99.90
62581;DHT22;48640;48.770;9.148;2023-08-20T04:15:02;22.30;99.90
62581;DHT22;48640;48.770;9.148;2023-08-20T04:17:29;22.30;99.90
62581;DHT22;48640;48.770;9.148;2023-08-20T04:19:55;22.30;99.90
62581;DHT22;48640;48.770;9.148;2023-08-20T04:22:24;22.30;99.90
62581;DHT22;48640;48.770;9.148;2023-08-20T04:24:52;22.30;99.90
62581;DHT22;48640;48.770;9.148;2023-08-20T04:27:34;22.20;99.90
62581;DHT22;48640;48.770;9.148;2023-08-20T04:30:01;22.10;99.90
62581;DHT22;48640;48.770;9.148;2023-08-20T04:32:29;22.20;99.90
62581;DHT22;48640;48.770;9.148;2023-08-20T04:34:56;22.20;99.90
62581;DHT22;48640;48.770;9.148;2023-08-20T04:37:24;22.20;99.90
62581;DHT22;48640;48.770;9.148;2023-08-20T04:39:51;22.20;99.90
62581;DHT22;48640;48.770;9.148;2023-08-20T04:42:18;22.20;99.90
62581;DHT22;48640;48.770;9.148;2023-08-20T04:44:47;22.20;99.90
62581;DHT22;48640;48.770;9.148;2023-08-20T04:47:14;22.30;99.90
62581;DHT22;48640;48.770;9.148;2023-08-20T04:49:42;22.30;99.90
62581;DHT22;48640;48.770;9.148;2023-08-20T04:52:09;22.40;99.90
62581;DHT22;48640;48.770;9.148;2023-08-20T04:54:38;22.30;99.90
62581;DHT22;48640;48.770;9.148;2023-08-20T04:57:05;22.40;99.90
62581;DHT22;48640;48.770;9.148;2023-08-20T04:59:32;22.50;99.90
62581;DHT22;48640;48.770;9.148;2023-08-20T05:01:58;22.50;99.90
62581;DHT22;48640;48.770;9.148;2023-08-20T05:04:25;22.50;99.90
62581;DHT22;48640;48.770;9.148;2023-08-20T05:06:52;22.50;99.90
62581;DHT22;48640;48.770;9.148;2023-08-20T05:09:19;22.50;99.90
62581;DHT22;48640;48.770;9.148;2023-08-20T05:11:47;22.60;99.90
62581;DHT22;48640;48.770;9.148;2023-08-20T05:14:14;22.70;99.90
62581;DHT22;48640;48.770;9.148;2023-08-20T05:16:41;22.70;99.90
62581;DHT22;48640;48.770;9.148;2023-08-20T05:19:07;23.00;99.90
62581;DHT22;48640;48.770;9.148;2023-08-20T05:21:34;23.20;99.90
62581;DHT22;48640;48.770;9.148;2023-08-20T05:24:01;23.10;99.90
62581;DHT22;48640;48.770;9.148;2023-08-20T05:26:28;23.00;99.90
62581;DHT22;48640;48.770;9.148;2023-08-20T05:28:56;23.00;99.90
62581;DHT22;48640;48.770;9.148;2023-08-20T05:31:23;23.00;99.90
62581;DHT22;48640;48.770;9.148;2023-08-20T05:33:50;23.00;99.90
62581;DHT22;48640;48.770;9.148;2023-08-20T05:36:16;23.10;99.90
62581;DHT22;48640;48.770;9.148;2023-08-20T05:38:43;23.10;99.90
62581;DHT22;48640;48.770;9.148;2023-08-20T05:41:10;23.20;99.90
62581;DHT22;48640;48.770;9.148;2023-08-20T05:43:37;23.20;99.90
62581;DHT22;48640;48.770;9.148;2023-08-20T05:46:05;23.30;99.90
62581;DHT22;48640;48.770;9.148;2023-08-20T05:48:32;23.30;99.90
62581;DHT22;48640;48.770;9.148;2023-08-20T05:50:59;23.40;99.90
62581;DHT22;48640;48.770;9.148;2023-08-20T05:53:25;23.80;99.90
62581;DHT22;48640;48.770;9.148;2023-08-20T05:55:52;24.10;99.90
62581;DHT22;48640;48.770;9.148;2023-08-20T05:58:19;24.70;99.90
62581;DHT22;48640;48.770;9.148;2023-08-20T06:00:46;25.60;99.90
62581;DHT22;48640;48.770;9.148;2023-08-20T06:03:14;26.10;99.70
62581;DHT22;48640;48.770;9.148;2023-08-20T06:05:41;26.40;99.00
62581;DHT22;48640;48.770;9.148;2023-08-20T06:08:07;26.80;98.20
62581;DHT22;48640;48.770;9.148;2023-08-20T06:10:34;27.10;97.00
62581;DHT22;48640;48.770;9.148;2023-08-20T06:13:01;27.20;96.90
62581;DHT22;48640;48.770;9.148;2023-08-20T06:15:28;27.50;95.50
62581;DHT22;48640;48.770;9.148;2023-08-20T06:17:55;27.60;95.40
62581;DHT22;48640;48.770;9.148;2023-08-20T06:20:23;27.50;95.10
62581;DHT22;48640;48.770;9.148;2023-08-20T06:22:49;27.20;96.10
62581;DHT22;48640;48.770;9.148;2023-08-20T06:25:16;27.40;95.10
62581;DHT22;48640;48.770;9.148;2023-08-20T06:27:43;27.50;95.10
62581;DHT22;48640;48.770;9.148;2023-08-20T06:30:10;27.80;94.50
62581;DHT22;48640;48.770;9.148;2023-08-20T06:32:37;27.80;94.20
62581;DHT22;48640;48.770;9.148;2023-08-20T06:35:05;27.60;94.20
62581;DHT22;48640;48.770;9.148;2023-08-20T06:37:34;27.70;94.80
62581;DHT22;48640;48.770;9.148;2023-08-20T06:40:01;27.60;94.70
62581;DHT22;48640;48.770;9.148;2023-08-20T06:42:28;27.50;95.10
62581;DHT22;48640;48.770;9.148;2023-08-20T06:44:55;27.40;94.80
62581;DHT22;48640;48.770;9.148;2023-08-20T06:47:22;27.50;95.30
62581;DHT22;48640;48.770;9.148;2023-08-20T06:49:49;27.90;95.00
62581;DHT22;48640;48.770;9.148;2023-08-20T06:52:16;27.90;94.50
62581;DHT22;48640;48.770;9.148;2023-08-20T06:54:44;28.00;93.70
62581;DHT22;48640;48.770;9.148;2023-08-20T06:57:11;28.40;93.10
62581;DHT22;48640;48.770;9.148;2023-08-20T06:59:38;28.30;93.20
62581;DHT22;48640;48.770;9.148;2023-08-20T07:02:05;28.20;92.40
62581;DHT22;48640;48.770;9.148;2023-08-20T07:04:32;28.20;93.20
62581;DHT22;48640;48.770;9.148;2023-08-20T07:06:59;28.30;92.60
62581;DHT22;48640;48.770;9.148;2023-08-20T07:09:26;28.30;92.60
62581;DHT22;48640;48.770;9.148;2023-08-20T07:11:54;28.50;92.00
62581;DHT22;48640;48.770;9.148;2023-08-20T07:14:21;28.30;92.80
62581;DHT22;48640;48.770;9.148;2023-08-20T07:16:48;28.10;93.40
62581;DHT22;48640;48.770;9.148;2023-08-20T07:19:14;28.30;92.60
62581;DHT22;48640;48.770;9.148;2023-08-20T07:21:41;28.30;92.30
62581;DHT22;48640;48.770;9.148;2023-08-20T07:24:08;28.20;94.30
62581;DHT22;48640;48.770;9.148;2023-08-20T07:26:35;28.70;92.10
62581;DHT22;48640;48.770;9.148;2023-08-20T07:29:03;29.20;90.90
62581;DHT22;48640;48.770;9.148;2023-08-20T07:31:32;29.70;90.10
62581;DHT22;48640;48.770;9.148;2023-08-20T07:34:00;30.00;89.00
62581;DHT22;48640;48.770;9.148;2023-08-20T07:36:28;30.20;88.70
62581;DHT22;48640;48.770;9.148;2023-08-20T07:38:55;30.50;86.70
62581;DHT22;48640;48.770;9.148;2023-08-20T07:41:22;30.40;84.90
62581;DHT22;48640;48.770;9.148;2023-08-20T07:43:49;30.60;83.60
62581;DHT22;48640;48.770;9.148;2023-08-20T07:46:17;31.10;83.20
62581;DHT22;48640;48.770;9.148;2023-08-20T07:48:44;32.00;79.60
62581;DHT22;48640;48.770;9.148;2023-08-20T07:51:11;32.00;78.50
62581;DHT22;48640;48.770;9.148;2023-08-20T07:53:38;32.00;76.10
62581;DHT22;48640;48.770;9.148;2023-08-20T07:56:05;32.10;76.70
62581;DHT22;48640;48.770;9.148;2023-08-20T07:58:32;32.10;76.70
62581;DHT22;48640;48.770;9.148;2023-08-20T08:00:58;31.70;76.80
62581;DHT22;48640;48.770;9.148;2023-08-20T08:03:27;31.30;78.70
62581;DHT22;48640;48.770;9.148;2023-08-20T08:05:54;31.30;80.70
62581;DHT22;48640;48.770;9.148;2023-08-20T08:08:21;31.80;79.30
62581;DHT22;48640;48.770;9.148;2023-08-20T08:10:48;32.50;75.80
62581;DHT22;48640;48.770;9.148;2023-08-20T08:13:18;33.50;71.40
62581;DHT22;48640;48.770;9.148;2023-08-20T08:15:45;35.20;66.10
62581;DHT22;48640;48.770;9.148;2023-08-20T08:18:12;36.00;61.50
62581;DHT22;48640;48.770;9.148;2023-08-20T08:20:40;36.60;57.80
62581;DHT22;48640;48.770;9.148;2023-08-20T08:23:07;36.60;58.50
62581;DHT22;48640;48.770;9.148;2023-08-20T08:25:34;37.20;56.50
62581;DHT22;48640;48.770;9.148;2023-08-20T08:28:01;38.20;52.70
62581;DHT22;48640;48.770;9.148;2023-08-20T08:30:28;39.00;50.50
62581;DHT22;48640;48.770;9.148;2023-08-20T08:32:55;39.00;48.60
62581;DHT22;48640;48.770;9.148;2023-08-20T08:35:22;38.60;49.50
62581;DHT22;48640;48.770;9.148;2023-08-20T08:37:50;38.20;49.60
62581;DHT22;48640;48.770;9.148;2023-08-20T08:40:17;38.10;49.60
62581;DHT22;48640;48.770;9.148;2023-08-20T08:42:48;38.40;48.60
62581;DHT22;48640;48.770;9.148;2023-08-20T08:45:17;38.90;47.30
62581;DHT22;48640;48.770;9.148;2023-08-20T08:47:44;40.20;44.80
62581;DHT22;48640;48.770;9.148;2023-08-20T08:50:11;40.50;43.50
62581;DHT22;48640;48.770;9.148;2023-08-20T08:52:39;39.80;43.10
62581;DHT22;48640;48.770;9.148;2023-08-20T08:55:08;39.90;43.70
62581;DHT22;48640;48.770;9.148;2023-08-20T08:57:36;40.20;43.20
62581;DHT22;48640;48.770;9.148;2023-08-20T09:00:04;40.30;42.20
62581;DHT22;48640;48.770;9.148;2023-08-20T09:02:31;40.60;41.60
62581;DHT22;48640;48.770;9.148;2023-08-20T09:04:58;40.60;41.10
62581;DHT22;48640;48.770;9.148;2023-08-20T09:07:25;39.80;43.00
62581;DHT22;48640;48.770;9.148;2023-08-20T09:09:58;38.90;45.20
62581;DHT22;48640;48.770;9.148;2023-08-20T09:12:27;39.70;43.80
62581;DHT22;48640;48.770;9.148;2023-08-20T09:14:54;40.80;41.80
62581;DHT22;48640;48.770;9.148;2023-08-20T09:17:26;39.90;42.60
62581;DHT22;48640;48.770;9.148;2023-08-20T09:19:55;41.30;40.60
62581;DHT22;48640;48.770;9.148;2023-08-20T09:22:23;41.50;40.10
62581;DHT22;48640;48.770;9.148;2023-08-20T09:24:54;43.00;38.00
62581;DHT22;48640;48.770;9.148;2023-08-20T09:27:22;43.80;36.90
62581;DHT22;48640;48.770;9.148;2023-08-20T09:29:50;43.60;36.40
62581;DHT22;48640;48.770;9.148;2023-08-20T09:32:18;42.60;36.90
62581;DHT22;48640;48.770;9.148;2023-08-20T09:34:46;41.10;39.60
62581;DHT22;48640;48.770;9.148;2023-08-20T09:37:15;42.30;37.90
62581;DHT22;48640;48.770;9.148;2023-08-20T09:39:42;42.60;36.00
62581;DHT22;48640;48.770;9.148;2023-08-20T09:42:10;41.90;36.90
62581;DHT22;48640;48.770;9.148;2023-08-20T09:44:39;40.80;38.80
62581;DHT22;48640;48.770;9.148;2023-08-20T09:47:09;41.70;38.10
62581;DHT22;48640;48.770;9.148;2023-08-20T09:49:40;42.30;36.10
62581;DHT22;48640;48.770;9.148;2023-08-20T09:52:08;42.00;36.50
62581;DHT22;48640;48.770;9.148;2023-08-20T09:54:45;42.30;36.40
62581;DHT22;48640;48.770;9.148;2023-08-20T09:57:23;42.60;35.70
62581;DHT22;48640;48.770;9.148;2023-08-20T09:59:52;42.60;36.00
62581;DHT22;48640;48.770;9.148;2023-08-20T10:02:21;42.40;36.00
62581;DHT22;48640;48.770;9.148;2023-08-20T10:04:49;42.60;35.30
62581;DHT22;48640;48.770;9.148;2023-08-20T10:07:17;42.40;36.10
62581;DHT22;48640;48.770;9.148;2023-08-20T10:09:44;42.60;34.90
62581;DHT22;48640;48.770;9.148;2023-08-20T10:12:11;42.10;35.60
62581;DHT22;48640;48.770;9.148;2023-08-20T10:14:38;41.50;36.10
62581;DHT22;48640;48.770;9.148;2023-08-20T10:17:07;42.50;35.30
62581;DHT22;48640;48.770;9.148;2023-08-20T10:19:37;42.50;35.20
62581;DHT22;48640;48.770;9.148;2023-08-20T10:22:06;42.00;35.70
62581;DHT22;48640;48.770;9.148;2023-08-20T10:24:48;42.50;34.30
62581;DHT22;48640;48.770;9.148;2023-08-20T10:27:26;41.60;36.10
62581;DHT22;48640;48.770;9.148;2023-08-20T10:29:54;41.30;36.50
62581;DHT22;48640;48.770;9.148;2023-08-20T10:32:45;41.30;36.00
62581;DHT22;48640;48.770;9.148;2023-08-20T10:35:15;41.00;37.30
62581;DHT22;48640;48.770;9.148;2023-08-20T10:38:00;41.00;37.10
62581;DHT22;48640;48.770;9.148;2023-08-20T10:40:46;41.30;36.50
62581;DHT22;48640;48.770;9.148;2023-08-20T10:43:26;41.80;35.80
62581;DHT22;48640;48.770;9.148;2023-08-20T10:46:06;41.50;35.70
62581;DHT22;48640;48.770;9.148;2023-08-20T10:48:33;41.60;36.20
62581;DHT22;48640;48.770;9.148;2023-08-20T10:51:11;41.80;35.00
62581;DHT22;48640;48.770;9.148;2023-08-20T10:53:38;41.80;35.10
62581;DHT22;48640;48.770;9.148;2023-08-20T10:56:10;41.80;34.90
62581;DHT22;48640;48.770;9.148;2023-08-20T10:58:40;41.40;36.20
62581;DHT22;48640;48.770;9.148;2023-08-20T11:01:15;41.40;35.30
62581;DHT22;48640;48.770;9.148;2023-08-20T11:03:44;40.50;36.90
62581;DHT22;48640;48.770;9.148;2023-08-20T11:06:12;40.10;38.10
62581;DHT22;48640;48.770;9.148;2023-08-20T11:08:39;40.20;37.80
62581;DHT22;48640;48.770;9.148;2023-08-20T11:11:07;40.60;36.40
62581;DHT22;48640;48.770;9.148;2023-08-20T11:13:35;40.50;36.00
62581;DHT22;48640;48.770;9.148;2023-08-20T11:16:03;40.50;35.70
62581;DHT22;48640;48.770;9.148;2023-08-20T11:18:31;41.10;34.90
62581;DHT22;48640;48.770;9.148;2023-08-20T11:20:59;41.00;34.50
62581;DHT22;48640;48.770;9.148;2023-08-20T11:23:28;41.10;34.30
62581;DHT22;48640;48.770;9.148;2023-08-20T11:25:55;40.90;35.20
62581;DHT22;48640;48.770;9.148;2023-08-20T11:28:22;41.80;34.20
62581;DHT22;48640;48.770;9.148;2023-08-20T11:30:51;41.30;34.20
62581;DHT22;48640;48.770;9.148;2023-08-20T11:33:19;40.50;35.10
62581;DHT22;48640;48.770;9.148;2023-08-20T11:35:47;40.40;37.30
62581;DHT22;48640;48.770;9.148;2023-08-20T11:38:13;40.30;37.50
62581;DHT22;48640;48.770;9.148;2023-08-20T11:40:42;41.10;35.60
62581;DHT22;48640;48.770;9.148;2023-08-20T11:43:09;41.30;34.90
62581;DHT22;48640;48.770;9.148;2023-08-20T11:45:44;41.50;34.90
62581;DHT22;48640;48.770;9.148;2023-08-20T11:48:11;41.20;34.80
62581;DHT22;48640;48.770;9.148;2023-08-20T11:50:38;40.80;35.30
62581;DHT22;48640;48.770;9.148;2023-08-20T11:53:06;40.10;37.20
62581;DHT22;48640;48.770;9.148;2023-08-20T11:55:33;40.00;37.10
62581;DHT22;48640;48.770;9.148;2023-08-20T11:58:01;40.10;36.80
62581;DHT22;48640;48.770;9.148;2023-08-20T12:00:30;39.80;37.10
62581;DHT22;48640;48.770;9.148;2023-08-20T12:02:57;40.00;36.90
62581;DHT22;48640;48.770;9.148;2023-08-20T12:05:27;40.40;37.50
62581;DHT22;48640;48.770;9.148;2023-08-20T12:07:58;40.20;36.10
62581;DHT22;48640;48.770;9.148;2023-08-20T12:10:26;39.10;38.30
62581;DHT22;48640;48.770;9.148;2023-08-20T12:12:54;39.00;39.30
62581;DHT22;48640;48.770;9.148;2023-08-20T12:15:24;38.80;38.60
62581;DHT22;48640;48.770;9.148;2023-08-20T12:17:58;38.90;38.90
62581;DHT22;48640;48.770;9.148;2023-08-20T12:20:27;38.30;40.00
62581;DHT22;48640;48.770;9.148;2023-08-20T12:22:56;38.10;39.40
62581;DHT22;48640;48.770;9.148;2023-08-20T12:25:23;37.90;40.50
62581;DHT22;48640;48.770;9.148;2023-08-20T12:27:50;37.80;40.70
62581;DHT22;48640;48.770;9.148;2023-08-20T12:30:17;37.70;39.80
62581;DHT22;48640;48.770;9.148;2023-08-20T12:32:45;37.20;40.50
62581;DHT22;48640;48.770;9.148;2023-08-20T12:35:12;36.80;41.50
62581;DHT22;48640;48.770;9.148;2023-08-20T12:37:38;36.60;42.90
62581;DHT22;48640;48.770;9.148;2023-08-20T12:40:06;36.80;42.30
62581;DHT22;48640;48.770;9.148;2023-08-20T12:42:36;37.00;42.50
62581;DHT22;48640;48.770;9.148;2023-08-20T12:45:06;37.30;41.30
62581;DHT22;48640;48.770;9.148;2023-08-20T12:47:33;37.20;41.40
62581;DHT22;48640;48.770;9.148;2023-08-20T12:50:04;37.30;41.40
62581;DHT22;48640;48.770;9.148;2023-08-20T12:52:32;37.40;40.90
62581;DHT22;48640;48.770;9.148;2023-08-20T12:54:59;37.40;40.30
62581;DHT22;48640;48.770;9.148;2023-08-20T12:57:27;37.30;40.10
62581;DHT22;48640;48.770;9.148;2023-08-20T12:59:54;37.00;41.00
62581;DHT22;48640;48.770;9.148;2023-08-20T13:02:21;36.70;41.90
62581;DHT22;48640;48.770;9.148;2023-08-20T13:04:48;36.80;41.20
62581;DHT22;48640;48.770;9.148;2023-08-20T13:07:18;36.70;40.90
62581;DHT22;48640;48.770;9.148;2023-08-20T13:09:46;36.20;41.90
62581;DHT22;48640;48.770;9.148;2023-08-20T13:12:13;36.10;42.50
62581;DHT22;48640;48.770;9.148;2023-08-20T13:14:41;36.10;42.70
62581;DHT22;48640;48.770;9.148;2023-08-20T13:17:09;36.00;43.40
62581;DHT22;48640;48.770;9.148;2023-08-20T13:19:37;36.10;42.70
62581;DHT22;48640;48.770;9.148;2023-08-20T13:22:05;36.20;43.40
62581;DHT22;48640;48.770;9.148;2023-08-20T13:24:34;36.00;42.70
62581;DHT22;48640;48.770;9.148;2023-08-20T13:27:03;36.00;42.70
62581;DHT22;48640;48.770;9.148;2023-08-20T13:29:30;36.00;44.00
62581;DHT22;48640;48.770;9.148;2023-08-20T13:31:57;36.00;42.50
62581;DHT22;48640;48.770;9.148;2023-08-20T13:34:24;36.00;43.00
62581;DHT22;48640;48.770;9.148;2023-08-20T13:36:57;35.90;42.90
62581;DHT22;48640;48.770;9.148;2023-08-20T13:39:28;36.00;43.30
62581;DHT22;48640;48.770;9.148;2023-08-20T13:41:58;35.60;43.60
62581;DHT22;48640;48.770;9.148;2023-08-20T13:44:25;35.40;44.60
62581;DHT22;48640;48.770;9.148;2023-08-20T13:46:53;35.20;44.80
62581;DHT22;48640;48.770;9.148;2023-08-20T13:49:21;35.10;46.10
62581;DHT22;48640;48.770;9.148;2023-08-20T13:51:51;35.20;46.00
62581;DHT22;48640;48.770;9.148;2023-08-20T13:54:18;35.30;45.70
62581;DHT22;48640;48.770;9.148;2023-08-20T13:56:47;35.20;45.80
62581;DHT22;48640;48.770;9.148;2023-08-20T13:59:17;35.20;46.60
62581;DHT22;48640;48.770;9.148;2023-08-20T14:01:44;35.20;46.50
62581;DHT22;48640;48.770;9.148;2023-08-20T14:04:13;35.10;47.20
62581;DHT22;48640;48.770;9.148;2023-08-20T14:06:40;35.10;46.80
62581;DHT22;48640;48.770;9.148;2023-08-20T14:09:09;34.90;47.20
62581;DHT22;48640;48.770;9.148;2023-08-20T14:11:37;34.80;47.00
62581;DHT22;48640;48.770;9.148;2023-08-20T14:14:04;34.50;47.00
62581;DHT22;48640;48.770;9.148;2023-08-20T14:16:33;34.20;48.20
62581;DHT22;48640;48.770;9.148;2023-08-20T14:19:00;34.00;48.50
62581;DHT22;48640;48.770;9.148;2023-08-20T14:21:27;33.90;49.80
62581;DHT22;48640;48.770;9.148;2023-08-20T14:23:55;33.80;49.40
62581;DHT22;48640;48.770;9.148;2023-08-20T14:26:22;33.80;49.80
62581;DHT22;48640;48.770;9.148;2023-08-20T14:28:51;33.80;49.50
62581;DHT22;48640;48.770;9.148;2023-08-20T14:31:18;33.70;48.90
62581;DHT22;48640;48.770;9.148;2023-08-20T14:33:49;33.50;49.10
62581;DHT22;48640;48.770;9.148;2023-08-20T14:36:18;33.20;49.90
62581;DHT22;48640;48.770;9.148;2023-08-20T14:38:45;32.90;50.70
62581;DHT22;48640;48.770;9.148;2023-08-20T14:41:11;32.90;51.40
62581;DHT22;48640;48.770;9.148;2023-08-20T14:43:39;32.90;50.40
62581;DHT22;48640;48.770;9.148;2023-08-20T14:46:10;32.90;50.50
62581;DHT22;48640;48.770;9.148;2023-08-20T14:48:38;32.90;50.00
62581;DHT22;48640;48.770;9.148;2023-08-20T14:51:08;32.70;50.80
62581;DHT22;48640;48.770;9.148;2023-08-20T14:53:35;32.60;51.40
62581;DHT22;48640;48.770;9.148;2023-08-20T14:56:02;32.50;50.40
62581;DHT22;48640;48.770;9.148;2023-08-20T14:58:32;32.50;51.40
62581;DHT22;48640;48.770;9.148;2023-08-20T15:01:01;32.40;51.60
62581;DHT22;48640;48.770;9.148;2023-08-20T15:03:30;32.30;51.50
62581;DHT22;48640;48.770;9.148;2023-08-20T15:05:57;32.40;51.40
62581;DHT22;48640;48.770;9.148;2023-08-20T15:08:26;32.40;52.20
62581;DHT22;48640;48.770;9.148;2023-08-20T15:10:57;32.50;51.00
62581;DHT22;48640;48.770;9.148;2023-08-20T15:13:28;32.50;51.60
62581;DHT22;48640;48.770;9.148;2023-08-20T15:15:56;32.60;51.30
62581;DHT22;48640;48.770;9.148;2023-08-20T15:18:24;32.80;50.70
62581;DHT22;48640;48.770;9.148;2023-08-20T15:20:54;32.80;50.20
62581;DHT22;48640;48.770;9.148;2023-08-20T15:23:22;32.90;50.00
62581;DHT22;48640;48.770;9.148;2023-08-20T15:25:55;33.00;49.70
62581;DHT22;48640;48.770;9.148;2023-08-20T15:28:24;32.90;50.10
62581;DHT22;48640;48.770;9.148;2023-08-20T15:30:55;32.70;50.00
62581;DHT22;48640;48.770;9.148;2023-08-20T15:33:23;32.70;51.00
62581;DHT22;48640;48.770;9.148;2023-08-20T15:35:50;32.60;50.40
62581;DHT22;48640;48.770;9.148;2023-08-20T15:38:17;32.50;50.30